Time;durP1;ratioP1;P1;durP2;ratioP2;P2;SDS_P1;SDS_P2;PMS_P1;PMS_P2;Temp;Humidity;BMP_temperature;BMP_pressure;BME280_temperature;BME280_humidity;BME280_pressure;Samples;Min_cycle;Max_cycle;Signal;HPM_P1;HPM_P2
2023/04/14 00:04:51;;;;;;;5.05;1.00;;;;;;;7.58;66.49;100419.91;15488424;28;20050;-51
2023/04/14 00:12:24;;;;;;;2.67;1.27;;;;;;;7.67;66.13;100434.72;15456281;28;20054;-53
2023/04/14 00:19:59;;;;;;;2.53;0.90;;;;;;;7.77;65.72;100438.88;15445936;28;20054;-53
2023/04/14 00:27:32;;;;;;;2.72;1.20;;;;;;;7.80;66.00;100443.84;15437023;28;20320;-53
2023/04/14 00:35:06;;;;;;;3.17;1.30;;;;;;;7.95;65.79;100441.84;15457515;28;20334;-52
2023/04/14 00:42:43;;;;;;;3.90;1.70;;;;;;;8.01;65.10;100433.00;15435201;28;20043;-50
2023/04/14 00:50:19;;;;;;;1.20;1.05;;;;;;;7.96;65.29;100442.66;15419026;28;20150;-50
2023/04/14 00:57:52;;;;;;;3.38;1.25;;;;;;;7.73;67.04;100446.47;15440248;28;20125;-52
2023/04/14 01:05:27;;;;;;;0.30;0.30;;;;;;;7.84;66.67;100445.91;15446799;28;20110;-54
2023/04/14 01:13:12;;;;;;;3.03;0.82;;;;;;;7.85;66.75;100450.22;15466776;28;20496;-55
2023/04/14 01:20:51;;;;;;;3.60;1.42;;;;;;;7.95;66.25;100449.84;15435152;28;20108;-52
2023/04/14 01:28:42;;;;;;;1.88;0.55;;;;;;;8.06;66.13;100448.44;15439204;28;20070;-51
2023/04/14 01:36:26;;;;;;;0.90;0.65;;;;;;;8.16;65.66;100448.91;15437510;28;20134;-50
2023/04/14 01:44:01;;;;;;;0.80;0.60;;;;;;;8.25;65.28;100452.19;15441686;28;20673;-54
2023/04/14 01:51:38;;;;;;;0.73;0.40;;;;;;;8.42;65.09;100448.97;15477021;28;20039;-52
2023/04/14 01:59:13;;;;;;;0.73;0.60;;;;;;;8.62;64.51;100445.50;15473610;28;20038;-52
2023/04/14 02:06:50;;;;;;;1.42;0.70;;;;;;;8.75;64.45;100444.69;15465510;28;20495;-54
2023/04/14 02:14:24;;;;;;;0.85;0.82;;;;;;;8.69;64.42;100449.00;15447822;28;20074;-55
2023/04/14 02:22:00;;;;;;;2.33;0.75;;;;;;;8.89;63.71;100449.84;15436779;28;20046;-53
2023/04/14 02:29:34;;;;;;;1.80;0.80;;;;;;;8.74;63.83;100453.75;15477364;28;20046;-53
2023/04/14 02:37:16;;;;;;;0.98;0.88;;;;;;;8.94;63.57;100457.25;15459979;28;20315;-51
2023/04/14 02:44:51;;;;;;;1.42;0.75;;;;;;;8.92;63.44;100460.13;15457430;28;20333;-51
2023/04/14 02:52:30;;;;;;;0.70;0.70;;;;;;;9.04;63.63;100460.31;15449289;28;20046;-52
2023/04/14 03:00:15;;;;;;;3.97;0.60;;;;;;;9.00;63.87;100455.59;15465140;28;20043;-50
2023/04/14 03:07:56;;;;;;;0.98;0.68;;;;;;;9.04;63.17;100462.19;15487963;28;20051;-52
2023/04/14 03:15:32;;;;;;;2.40;1.02;;;;;;;9.03;63.51;100460.53;15450362;28;20051;-52
2023/04/14 03:23:11;;;;;;;1.23;0.70;;;;;;;8.93;63.37;100456.41;15450164;28;20092;-51
2023/04/14 03:30:53;;;;;;;0.47;0.47;;;;;;;8.74;64.04;100449.22;15440118;28;20503;-53
2023/04/14 03:38:29;;;;;;;1.42;0.75;;;;;;;8.59;64.23;100452.09;15450824;28;20643;-53
2023/04/14 03:46:04;;;;;;;1.35;1.02;;;;;;;8.24;65.76;100439.84;15410996;28;20081;-51
2023/04/14 03:53:41;;;;;;;1.23;0.65;;;;;;;8.51;65.22;100441.59;15458086;28;20046;-52
2023/04/14 04:01:16;;;;;;;1.17;1.08;;;;;;;8.89;63.77;100440.97;15447648;28;20496;-50
2023/04/14 04:08:53;;;;;;;1.15;0.80;;;;;;;8.71;65.10;100449.63;15447965;28;20611;-54
2023/04/14 04:16:27;;;;;;;0.70;0.55;;;;;;;8.95;64.05;100440.16;15424332;28;20051;-50
2023/04/14 04:24:04;;;;;;;3.03;1.60;;;;;;;8.54;65.68;100449.22;15445518;28;20034;-53
2023/04/14 04:31:39;;;;;;;2.67;1.27;;;;;;;8.10;67.03;100455.03;15450851;28;20710;-55
2023/04/14 04:39:16;;;;;;;0.80;0.77;;;;;;;8.24;66.68;100450.56;15501452;28;20096;-51
2023/04/14 04:46:53;;;;;;;2.60;1.15;;;;;;;8.57;66.56;100446.09;15457729;28;20043;-53
2023/04/14 04:54:31;;;;;;;4.72;0.98;;;;;;;8.94;65.66;100444.69;15435441;28;20676;-53
2023/04/14 05:02:04;;;;;;;1.63;0.98;;;;;;;9.26;65.07;100454.75;15466868;28;20474;-52
2023/04/14 05:09:40;;;;;;;1.27;0.73;;;;;;;9.66;64.33;100458.16;15470269;28;20085;-52
2023/04/14 05:17:13;;;;;;;1.70;1.20;;;;;;;9.93;63.57;100456.19;15446411;23;20050;-50
2023/04/14 05:24:50;;;;;;;1.90;0.77;;;;;;;9.84;64.59;100460.16;15486995;28;20074;-53
2023/04/14 05:32:23;;;;;;;1.05;0.85;;;;;;;9.99;64.34;100462.59;15440410;28;20046;-50
2023/04/14 05:39:57;;;;;;;3.50;1.40;;;;;;;9.88;64.79;100466.72;15459365;28;20058;-50
2023/04/14 05:47:31;;;;;;;1.88;1.27;;;;;;;9.75;65.11;100459.59;15459229;28;20059;-49
2023/04/14 05:55:07;;;;;;;1.58;1.38;;;;;;;9.71;64.99;100471.75;15431878;28;20038;-50
2023/04/14 06:02:42;;;;;;;2.42;1.30;;;;;;;9.92;65.21;100465.28;15429116;28;20046;-51
2023/04/14 06:10:16;;;;;;;0.82;0.70;;;;;;;10.13;64.88;100473.03;15428473;28;20102;-50
2023/04/14 06:17:51;;;;;;;1.30;1.00;;;;;;;9.92;65.15;100473.31;15442435;28;20090;-50
2023/04/14 06:25:26;;;;;;;1.90;1.15;;;;;;;9.90;66.21;100467.34;15452034;28;20402;-51
2023/04/14 06:33:02;;;;;;;1.27;0.73;;;;;;;10.10;66.12;100470.75;15475613;28;20042;-50
2023/04/14 06:40:37;;;;;;;1.48;0.98;;;;;;;10.13;66.65;100475.72;15455304;28;20050;-49
2023/04/14 06:48:12;;;;;;;2.60;1.10;;;;;;;10.28;66.65;100480.81;15489612;28;20043;-54
2023/04/14 06:55:46;;;;;;;1.15;0.93;;;;;;;10.25;66.76;100480.41;15431913;28;20066;-55
2023/04/14 07:03:19;;;;;;;4.47;1.02;;;;;;;10.20;66.72;100484.53;15434581;28;20082;-50
2023/04/14 07:10:59;;;;;;;1.38;0.90;;;;;;;10.09;67.32;100471.00;15475390;28;20062;-52
2023/04/14 07:18:32;;;;;;;2.05;1.25;;;;;;;10.41;66.61;100477.25;15476922;28;20105;-50
2023/04/14 07:26:07;;;;;;;3.65;1.25;;;;;;;10.50;67.15;100481.31;15453310;28;20039;-50
2023/04/14 07:33:40;;;;;;;2.78;1.02;;;;;;;10.11;68.61;100488.50;15460683;28;20435;-49
2023/04/14 07:41:14;;;;;;;3.67;1.83;;;;;;;10.48;67.70;100489.56;15475407;28;20499;-50
2023/04/14 07:48:47;;;;;;;4.75;1.50;;;;;;;10.84;67.34;100490.78;15445598;28;20046;-50
2023/04/14 07:56:22;;;;;;;2.57;1.03;;;;;;;10.61;68.24;100496.72;15470489;28;20046;-53
2023/04/14 08:03:54;;;;;;;2.80;1.30;;;;;;;10.76;67.54;100495.59;15489021;28;20538;-50
2023/04/14 08:11:29;;;;;;;2.03;1.80;;;;;;;10.90;67.81;100506.00;15482340;28;20046;-50
2023/04/14 08:19:02;;;;;;;2.30;1.10;;;;;;;10.32;68.54;100505.38;15459052;28;20098;-49
2023/04/14 08:26:40;;;;;;;1.77;1.10;;;;;;;10.23;68.41;100502.06;15477972;28;20434;-50
2023/04/14 08:34:13;;;;;;;2.78;1.35;;;;;;;10.23;67.46;100499.38;15452040;28;20034;-51
2023/04/14 08:41:50;;;;;;;2.85;1.25;;;;;;;9.62;67.36;100500.63;15454591;28;20109;-50
2023/04/14 08:49:32;;;;;;;0.70;0.70;;;;;;;9.61;67.89;100500.84;15448877;28;20082;-52
2023/04/14 08:57:08;;;;;;;1.80;0.68;;;;;;;9.33;69.11;100485.84;15463502;28;20051;-51
2023/04/14 09:04:42;;;;;;;2.72;1.23;;;;;;;9.71;68.86;100494.00;15447136;28;20515;-51
2023/04/14 09:12:17;;;;;;;0.68;0.45;;;;;;;9.33;67.83;100482.38;15435465;28;20117;-53
2023/04/14 09:19:50;;;;;;;0.90;0.50;;;;;;;9.73;67.81;100484.94;15455604;28;20411;-50
2023/04/14 09:27:25;;;;;;;2.42;0.60;;;;;;;9.60;68.64;100486.59;15468064;28;20053;-50
2023/04/14 09:34:59;;;;;;;0.93;0.22;;;;;;;9.58;69.40;100471.78;15494346;28;20127;-53
2023/04/14 09:42:39;;;;;;;1.80;1.03;;;;;;;8.95;70.59;100472.25;15475898;28;20054;-51
2023/04/14 09:50:12;;;;;;;1.60;0.70;;;;;;;8.99;71.21;100470.84;15456530;28;20058;-52
2023/04/14 09:57:47;;;;;;;1.87;0.80;;;;;;;9.22;71.07;100469.59;15460470;28;20038;-52
2023/04/14 10:05:20;;;;;;;5.80;0.85;;;;;;;9.36;72.27;100474.72;15472271;28;20058;-55
2023/04/14 10:13:00;;;;;;;1.38;0.60;;;;;;;9.47;72.05;100478.63;15476699;28;20447;-53
2023/04/14 10:20:33;;;;;;;1.00;0.40;;;;;;;8.92;72.16;100465.50;15479620;28;20153;-50
2023/04/14 10:28:08;;;;;;;1.80;0.82;;;;;;;9.48;71.92;100463.38;15469078;28;20066;-50
2023/04/14 10:35:42;;;;;;;3.35;0.88;;;;;;;9.74;71.11;100465.13;15450530;28;20093;-51
2023/04/14 10:43:17;;;;;;;1.48;0.65;;;;;;;9.59;71.74;100452.81;15462516;28;20077;-50
2023/04/14 10:50:56;;;;;;;2.33;1.02;;;;;;;9.63;71.21;100446.00;15483272;28;20045;-50
2023/04/14 10:58:31;;;;;;;3.22;0.60;;;;;;;10.31;69.96;100442.84;15493495;28;20487;-51
2023/04/14 11:06:05;;;;;;;0.50;0.40;;;;;;;9.70;69.41;100435.28;15481198;28;20043;-50
2023/04/14 11:13:41;;;;;;;1.17;0.40;;;;;;;9.74;69.90;100435.66;15448003;28;20138;-52
2023/04/14 11:21:19;;;;;;;0.90;0.55;;;;;;;9.87;70.21;100432.91;15479695;28;20422;-50
2023/04/14 11:28:55;;;;;;;0.80;0.40;;;;;;;9.35;70.15;100434.75;15463864;28;20117;-47
2023/04/14 11:36:28;;;;;;;0.30;0.30;;;;;;;9.23;71.38;100429.19;15475755;28;20463;-50
2023/04/14 11:44:03;;;;;;;1.23;0.57;;;;;;;9.12;71.75;100433.34;15426370;28;20301;-52
2023/04/14 11:51:37;;;;;;;0.73;0.30;;;;;;;9.26;70.96;100436.81;15471183;28;20384;-50
2023/04/14 11:59:11;;;;;;;1.13;0.70;;;;;;;8.83;72.58;100436.47;15460110;28;20443;-51
2023/04/14 12:06:44;;;;;;;0.85;0.68;;;;;;;9.05;71.22;100431.72;15437257;28;20054;-51
2023/04/14 12:14:19;;;;;;;7.25;0.32;;;;;;;8.78;73.71;100420.22;15452535;28;20541;-49
2023/04/14 12:21:53;;;;;;;0.45;0.32;;;;;;;9.06;72.88;100423.47;15437623;28;20056;-53
2023/04/14 12:29:27;;;;;;;0.57;0.35;;;;;;;9.20;71.77;100410.88;15449098;28;20413;-49
2023/04/14 12:37:06;;;;;;;0.40;0.38;;;;;;;8.93;72.96;100404.75;15457818;28;20088;-52
2023/04/14 12:44:41;;;;;;;0.20;0.10;;;;;;;8.93;74.36;100397.53;15465041;28;20093;-53
2023/04/14 12:52:36;;;;;;;0.68;0.47;;;;;;;9.05;73.53;100384.34;15480291;28;20046;-51
2023/04/14 13:00:12;;;;;;;1.75;0.63;;;;;;;8.99;72.95;100379.00;15452222;28;20049;-52
2023/04/14 13:07:46;;;;;;;0.45;0.32;;;;;;;9.00;74.24;100370.78;15454487;28;20775;-52
2023/04/14 13:15:21;;;;;;;0.40;0.38;;;;;;;8.97;74.09;100373.03;15477825;28;20043;-52
2023/04/14 13:22:55;;;;;;;1.55;0.68;;;;;;;8.87;74.31;100366.25;15464880;28;20069;-53
2023/04/14 13:30:30;;;;;;;0.87;0.87;;;;;;;8.88;74.61;100356.38;15465990;28;20569;-51
2023/04/14 13:38:03;;;;;;;2.05;0.65;;;;;;;9.48;73.04;100362.38;15476084;28;20455;-50
2023/04/14 13:45:38;;;;;;;1.13;0.98;;;;;;;9.16;73.24;100353.44;15468727;28;20102;-52
2023/04/14 13:53:11;;;;;;;0.22;0.22;;;;;;;9.21;73.59;100345.59;15463808;28;20050;-52
2023/04/14 14:00:46;;;;;;;1.02;0.57;;;;;;;9.16;72.99;100338.19;15462074;28;20061;-49
2023/04/14 14:08:19;;;;;;;0.70;0.45;;;;;;;9.02;74.52;100336.56;15470839;28;20034;-49
2023/04/14 14:15:53;;;;;;;;;;;;;;;9.10;73.65;100336.34;15483134;28;20046;-49
2023/04/14 14:23:26;;;;;;;0.88;0.47;;;;;;;9.10;73.02;100332.84;15459347;28;19929;-50
2023/04/14 14:31:01;;;;;;;1.13;0.47;;;;;;;8.56;75.52;100340.13;15463651;28;20053;-51
2023/04/14 14:38:37;;;;;;;0.55;0.43;;;;;;;9.00;74.35;100319.91;15456869;28;20507;-49
2023/04/14 14:46:11;;;;;;;0.30;0.30;;;;;;;9.03;73.14;100315.97;15462749;28;20046;-49
2023/04/14 14:53:44;;;;;;;1.30;0.82;;;;;;;8.84;74.92;100313.13;15448062;28;20059;-49
2023/04/14 15:01:18;;;;;;;1.40;0.40;;;;;;;8.81;74.25;100315.41;15432714;28;20069;-50
2023/04/14 15:08:51;;;;;;;1.05;0.68;;;;;;;8.75;74.97;100310.91;15440759;28;20050;-49
2023/04/14 15:16:26;;;;;;;1.00;0.60;;;;;;;8.70;74.17;100311.53;15471855;28;20039;-51
2023/04/14 15:24:00;;;;;;;0.95;0.50;;;;;;;8.58;75.37;100313.16;15439270;28;20292;-48
2023/04/14 15:31:34;;;;;;;5.35;1.70;;;;;;;8.63;75.46;100321.44;15424481;28;20486;-51
2023/04/14 15:39:11;;;;;;;1.42;0.57;;;;;;;8.54;76.08;100325.34;15463138;28;20034;-49
2023/04/14 15:46:46;;;;;;;2.30;1.20;;;;;;;8.64;75.18;100310.50;15444836;28;20050;-48
2023/04/14 15:54:19;;;;;;;0.80;0.55;;;;;;;8.89;75.03;100320.53;15456394;28;20039;-53
2023/04/14 16:01:53;;;;;;;0.70;0.50;;;;;;;9.03;74.00;100324.81;15459532;28;20039;-50
2023/04/14 16:09:26;;;;;;;0.43;0.40;;;;;;;9.23;73.72;100323.94;15439972;28;20496;-50
2023/04/14 16:17:01;;;;;;;1.95;1.25;;;;;;;9.33;73.01;100333.19;15458755;28;20046;-49
2023/04/14 16:24:34;;;;;;;0.82;0.60;;;;;;;8.61;75.54;100328.81;15428948;28;20074;-51
2023/04/14 16:32:08;;;;;;;0.80;0.70;;;;;;;8.81;75.07;100328.78;15469647;28;20050;-50
2023/04/14 16:39:42;;;;;;;1.25;0.98;;;;;;;8.77;75.01;100332.94;15430723;28;20489;-51
2023/04/14 16:47:17;;;;;;;1.37;0.63;;;;;;;8.88;75.08;100333.09;15475578;28;20050;-51
2023/04/14 16:54:50;;;;;;;0.82;0.75;;;;;;;8.73;75.44;100337.06;15443860;28;20078;-51
2023/04/14 17:02:24;;;;;;;1.20;0.83;;;;;;;8.74;75.08;100339.50;15460828;28;20055;-48
2023/04/14 17:09:58;;;;;;;2.42;1.27;;;;;;;9.43;73.14;100333.56;15417258;28;20042;-50
2023/04/14 17:17:35;;;;;;;3.28;0.90;;;;;;;9.40;73.38;100327.78;15448358;23;20055;-49
2023/04/14 17:25:10;;;;;;;3.03;1.10;;;;;;;9.20;73.60;100333.22;15445992;28;20497;-50
2023/04/14 17:32:45;;;;;;;1.70;1.13;;;;;;;8.88;74.89;100334.97;15415004;28;20142;-53
2023/04/14 17:40:18;;;;;;;1.40;0.85;;;;;;;9.00;74.92;100349.34;15419023;28;20047;-50
2023/04/14 17:47:53;;;;;;;1.13;1.00;;;;;;;9.12;74.20;100339.63;15435223;28;20047;-49
2023/04/14 17:55:27;;;;;;;1.15;0.73;;;;;;;9.07;73.99;100341.28;15439717;28;20043;-50
2023/04/14 18:03:01;;;;;;;0.85;0.77;;;;;;;9.05;74.75;100335.34;15441363;28;20628;-50
2023/04/14 18:10:34;;;;;;;1.42;0.95;;;;;;;8.77;75.68;100314.19;15440302;28;20085;-52
2023/04/14 18:18:09;;;;;;;2.55;2.08;;;;;;;9.01;74.03;100316.19;15479980;28;20125;-53
2023/04/14 18:25:42;;;;;;;4.85;1.23;;;;;;;8.54;75.98;100323.50;15471470;28;20042;-50
2023/04/14 18:33:17;;;;;;;1.10;1.00;;;;;;;8.90;74.79;100317.66;15485587;28;20062;-48
2023/04/14 18:40:50;;;;;;;1.50;0.70;;;;;;;8.57;76.05;100319.56;15471847;28;20062;-48
2023/04/14 18:48:24;;;;;;;1.92;1.15;;;;;;;8.71;76.09;100315.84;15457436;28;20042;-51
2023/04/14 18:55:57;;;;;;;5.85;1.52;;;;;;;8.51;77.80;100329.25;15474789;28;20504;-50
2023/04/14 19:03:31;;;;;;;0.80;0.50;;;;;;;8.66;76.28;100329.84;15454377;28;20500;-50
2023/04/14 19:11:04;;;;;;;0.28;0.28;;;;;;;8.35;77.88;100325.13;15439342;28;20511;-50
2023/04/14 19:18:39;;;;;;;2.70;1.00;;;;;;;8.78;75.79;100313.16;15441764;28;20051;-49
2023/04/14 19:26:12;;;;;;;5.03;0.98;;;;;;;8.74;76.11;100301.22;15470233;28;20054;-49
2023/04/14 19:33:47;;;;;;;;;;;;;;;8.72;75.81;100298.78;15433744;28;20492;-49
2023/04/14 19:41:20;;;;;;;1.52;1.30;;;;;;;8.56;77.08;100300.00;15425219;28;20024;-49
2023/04/14 19:48:55;;;;;;;2.17;1.27;;;;;;;8.85;75.40;100304.06;15432529;28;20030;-54
2023/04/14 19:56:28;;;;;;;2.50;1.45;;;;;;;8.62;75.54;100276.94;15467014;28;20030;-49
2023/04/14 20:04:03;;;;;;;1.08;0.88;;;;;;;8.78;75.91;100289.09;15445352;28;20046;-49
2023/04/14 20:11:36;;;;;;;0.57;0.57;;;;;;;8.34;77.36;100277.16;15434558;28;20129;-50
2023/04/14 20:19:10;;;;;;;4.43;1.40;;;;;;;8.84;75.31;100285.56;15443824;28;20603;-51
2023/04/14 20:26:43;;;;;;;1.65;1.27;;;;;;;8.47;77.00;100271.84;15424363;28;20302;-49
2023/04/14 20:34:18;;;;;;;2.70;1.17;;;;;;;8.58;76.45;100276.56;15423878;28;20182;-51
2023/04/14 20:41:51;;;;;;;1.08;0.90;;;;;;;8.79;75.84;100269.31;15431953;28;20403;-50
2023/04/14 20:49:25;;;;;;;2.03;1.20;;;;;;;8.66;76.30;100256.78;15418451;28;20070;-51
2023/04/14 20:56:59;;;;;;;1.58;1.00;;;;;;;8.81;76.13;100253.84;15434087;28;20042;-54
2023/04/14 21:04:33;;;;;;;;;;;;;;;8.21;78.40;100237.06;15416425;28;20105;-50
2023/04/14 21:12:06;;;;;;;1.85;0.80;;;;;;;8.44;77.56;100242.84;15426592;28;19929;-51
2023/04/14 21:19:41;;;;;;;0.85;0.50;;;;;;;8.37;78.05;100240.16;15442912;28;20039;-52
2023/04/14 21:27:15;;;;;;;1.42;1.33;;;;;;;8.19;78.61;100230.06;15440213;28;20045;-48
2023/04/14 21:34:49;;;;;;;1.90;0.73;;;;;;;8.28;78.28;100211.16;15438057;28;20057;-48
2023/04/14 21:42:22;;;;;;;1.98;1.40;;;;;;;8.28;78.22;100217.31;15435771;28;20504;-50
2023/04/14 21:49:57;;;;;;;1.60;0.97;;;;;;;8.22;77.95;100185.25;15436943;28;20078;-50
2023/04/14 21:57:30;;;;;;;6.30;1.70;;;;;;;8.25;78.49;100191.00;15430691;28;20047;-49
2023/04/14 22:05:05;;;;;;;3.80;1.80;;;;;;;8.23;78.24;100189.56;15430252;28;20035;-50
2023/04/14 22:12:41;;;;;;;3.28;1.92;;;;;;;8.56;77.63;100201.03;15417634;28;20053;-48
2023/04/14 22:20:17;;;;;;;1.40;1.30;;;;;;;8.61;77.47;100195.06;15426043;28;20047;-51
2023/04/14 22:27:50;;;;;;;1.95;0.98;;;;;;;8.45;77.74;100193.69;15421371;28;20050;-49
2023/04/14 22:35:24;;;;;;;2.60;1.77;;;;;;;8.42;78.46;100186.06;15429505;28;20047;-53
2023/04/14 22:42:58;;;;;;;2.58;1.33;;;;;;;8.49;77.90;100184.19;15481926;28;20038;-52
2023/04/14 22:50:32;;;;;;;3.17;2.43;;;;;;;8.40;78.22;100180.13;15449124;28;20047;-56
2023/04/14 22:58:05;;;;;;;2.97;1.98;;;;;;;8.73;77.38;100182.69;15429629;28;20189;-55
2023/04/14 23:05:40;;;;;;;4.00;2.03;;;;;;;8.37;78.59;100180.53;15426270;28;20099;-54
2023/04/14 23:13:13;;;;;;;3.28;1.83;;;;;;;8.16;79.33;100178.91;15423115;28;20050;-53
2023/04/14 23:20:47;;;;;;;7.07;4.13;;;;;;;8.27;79.40;100177.44;15429294;28;20070;-54
2023/04/14 23:28:20;;;;;;;4.43;3.13;;;;;;;8.46;79.16;100173.09;15432139;28;20050;-54
2023/04/14 23:35:55;;;;;;;4.03;2.43;;;;;;;8.98;77.16;100180.09;15445324;28;20104;-54
2023/04/14 23:43:28;;;;;;;5.25;3.08;;;;;;;8.65;78.26;100178.38;15435494;28;20146;-55
2023/04/14 23:51:02;;;;;;;;;;;;;;;9.13;76.81;100158.38;15464607;28;20082;-54
2023/04/14 23:58:35;;;;;;;3.78;2.28;;;;;;;8.99;77.00;100160.31;15443051;28;19957;-53
